Time;durP1;ratioP1;P1;durP2;ratioP2;P2;SDS_P1;SDS_P2;PMS_P1;PMS_P2;Temp;Humidity;BMP_temperature;BMP_pressure;BME280_temperature;BME280_humidity;BME280_pressure;Samples;Min_cycle;Max_cycle;Signal;HPM_P1;HPM_P2
2022/02/02 00:02:29;;;;;;;;;;;;;;;;;;10215050;28;19965;-62
2022/02/02 00:07:34;;;;;;;;;;;;;;;;;;10214997;28;19957;-62
2022/02/02 00:12:41;;;;;;;;;;;;;;;;;;10211208;28;19976;-62
2022/02/02 00:17:49;;;;;;;;;;;;;;;;;;10214100;28;19960;-61
2022/02/02 00:22:50;;;;;;;;;;;;;;;;;;10198594;28;19967;-62
2022/02/02 00:27:53;;;;;;;;;;;;;;;;;;10213591;28;19986;-61
2022/02/02 00:33:07;;;;;;;;;;;;;;;;;;10217381;28;19972;-61
2022/02/02 00:38:05;;;;;;;;;;;;;;;;;;10215148;28;19972;-61
2022/02/02 00:43:03;;;;;;;;;;;;;;;;;;10222854;28;19969;-61
2022/02/02 00:48:01;;;;;;;;;;;;;;;;;;10219643;28;19979;-61
2022/02/02 00:52:59;;;;;;;;;;;;;;;;;;10221582;28;20371;-61
2022/02/02 00:57:57;;;;;;;;;;;;;;;;;;10220052;28;19949;-61
2022/02/02 01:02:56;;;;;;;;;;;;;;;;;;10219401;28;19971;-61
2022/02/02 01:13:46;;;;;;;;;;;;;;;;;;10183442;28;19965;-62
2022/02/02 01:18:58;;;;;;;;;;;;;;;;;;10218955;28;20402;-62
2022/02/02 01:29:12;;;;;;;;;;;;;;;;;;10220360;28;19960;-61
2022/02/02 01:34:10;;;;;;;;;;;;;;;;;;10217658;28;20390;-63
2022/02/02 01:39:11;;;;;;;;;;;;;;;;;;10218234;28;19960;-62
2022/02/02 01:44:17;;;;;;;;;;;;;;;;;;10218272;28;19952;-63
2022/02/02 01:54:55;;;;;;;;;;;;;;;;;;10216068;28;19964;-62
2022/02/02 01:59:53;;;;;;;;;;;;;;;;;;10213770;28;19980;-62
2022/02/02 02:04:51;;;;;;;;;;;;;;;;;;10216618;28;19979;-62
2022/02/02 02:09:48;;;;;;;;;;;;;;;;;;10215646;28;20382;-62
2022/02/02 02:14:51;;;;;;;;;;;;;;;;;;10217190;28;20382;-62
2022/02/02 02:19:50;;;;;;;;;;;;;;;;;;10212882;28;19967;-62
2022/02/02 02:24:49;;;;;;;;;;;;;;;;;;10212835;28;19952;-62
2022/02/02 02:55:46;;;;;;;;;;;;;;;;;;10205720;28;20274;-63
2022/02/02 02:56:31;;;;;;;;;;;;;;;;;;10126666;28;20446;-63
2022/02/02 03:01:45;;;;;;;;;;;;;;;;;;10188610;28;19964;-63
2022/02/02 03:59:40;;;;;;;;;;;;;;;;;;10188977;28;20405;-63
2022/02/02 04:04:52;;;;;;;;;;;;;;;;;;10215183;28;19921;-63
2022/02/02 04:09:51;;;;;;;;;;;;;;;;;;10214867;28;19963;-63
2022/02/02 04:52:14;;;;;;;;;;;;;;;;;;10389431;28;19956;-63
2022/02/02 05:08:05;;;;;;;;;;;;;;;;;;10386408;28;20430;-63
2022/02/02 05:45:30;;;;;;;;;;;;;;;;;;10359480;28;19963;-62
2022/02/02 05:55:49;;;;;;;;;;;;;;;;;;10383558;28;19974;-63
2022/02/02 06:00:47;;;;;;;;;;;;;;;;;;10403475;27;19974;-63
2022/02/02 06:05:44;;;;;;;;;;;;;;;;;;10403553;27;20388;-62
2022/02/02 06:10:43;;;;;;;;;;;;;;;;;;10394871;27;19970;-63
2022/02/02 06:15:42;;;;;;;;;;;;;;;;;;10411210;27;19924;-63
2022/02/02 06:20:40;;;;;;;;;;;;;;;;;;10398396;28;20381;-62
2022/02/02 06:25:38;;;;;;;;;;;;;;;;;;10397707;28;19952;-62
2022/02/02 06:30:36;;;;;;;;;;;;;;;;;;10398087;28;19971;-62
2022/02/02 06:35:33;;;;;;;;;;;;;;;;;;10405166;27;19967;-61
2022/02/02 06:40:33;;;;;;;;;;;;;;;;;;10406319;27;19959;-60
2022/02/02 06:45:31;;;;;;;;;;;;;;;;;;10396593;28;19958;-61
2022/02/02 06:50:33;;;;;;;;;;;;;;;;;;10397743;28;19963;-61
2022/02/02 06:55:36;;;;;;;;;;;;;;;;;;10414537;27;19967;-60
2022/02/02 07:00:41;;;;;;;;;;;;;;;;;;10406316;27;19960;-62
2022/02/02 07:05:48;;;;;;;;;;;;;;;;;;10403898;27;19974;-62
2022/02/02 07:11:07;;;;;;;;;;;;;;;;;;10400140;27;19927;-61
2022/02/02 07:16:10;;;;;;;;;;;;;;;;;;10398169;27;19975;-63
2022/02/02 07:21:24;;;;;;;;;;;;;;;;;;10398087;27;19990;-63
2022/02/02 07:26:48;;;;;;;;;;;;;;;;;;10392354;27;19955;-63
2022/02/02 07:31:52;;;;;;;;;;;;;;;;;;10390936;28;20013;-63
2022/02/02 07:36:53;;;;;;;;;;;;;;;;;;10394941;28;19966;-66
2022/02/02 07:41:51;;;;;;;;;;;;;;;;;;10389620;27;19951;-64
2022/02/02 07:46:54;;;;;;;;;;;;;;;;;;10391078;28;19966;-63
2022/02/02 07:51:52;;;;;;;;;;;;;;;;;;10371171;28;19931;-64
2022/02/02 07:56:50;;;;;;;;;;;;;;;;;;10395013;28;19971;-63
2022/02/02 08:01:49;;;;;;;;;;;;;;;;;;10394384;28;19963;-63
2022/02/02 08:06:52;;;;;;;;;;;;;;;;;;10394542;28;20367;-63
2022/02/02 08:11:51;;;;;;;;;;;;;;;;;;10393902;28;19973;-62
2022/02/02 08:16:58;;;;;;;;;;;;;;;;;;10393806;28;19971;-63
2022/02/02 08:21:56;;;;;;;;;;;;;;;;;;10393535;28;19959;-63
2022/02/02 08:26:54;;;;;;;;;;;;;;;;;;10393102;28;19951;-64
2022/02/02 08:31:52;;;;;;;;;;;;;;;;;;10391906;28;19951;-63
2022/02/02 08:36:54;;;;;;;;;;;;;;;;;;10391831;28;20042;-62
2022/02/02 08:41:57;;;;;;;;;;;;;;;;;;10392944;28;19990;-63
2022/02/02 08:47:00;;;;;;;;;;;;;;;;;;10393574;28;19955;-62
2022/02/02 08:52:00;;;;;;;;;;;;;;;;;;10390022;28;19955;-62
2022/02/02 08:57:25;;;;;;;;;;;;;;;;;;10390183;28;20227;-63
2022/02/02 09:02:28;;;;;;;;;;;;;;;;;;10390416;28;19965;-62
2022/02/02 09:07:26;;;;;;;;;;;;;;;;;;10401082;28;19971;-62
2022/02/02 09:38:37;;;;;;;;;;;;;;;;;;10400290;28;19969;-63
2022/02/02 09:43:35;;;;;;;;;;;;;;;;;;10400232;28;20149;-63
2022/02/02 09:48:41;;;;;;;;;;;;;;;;;;10400213;28;20010;-62
2022/02/02 09:53:43;;;;;;;;;;;;;;;;;;10399017;28;19966;-63
2022/02/02 09:58:59;;;;;;;;;;;;;;;;;;10401551;27;20452;-62
2022/02/02 10:04:05;;;;;;;;;;;;;;;;;;10403622;27;19959;-63
2022/02/02 10:09:20;;;;;;;;;;;;;;;;;;10399342;28;19963;-63
2022/02/02 10:14:19;;;;;;;;;;;;;;;;;;10398818;28;19970;-62
2022/02/02 10:19:17;;;;;;;;;;;;;;;;;;10398166;28;19982;-62
2022/02/02 10:24:15;;;;;;;;;;;;;;;;;;10399177;28;19959;-62
2022/02/02 10:29:15;;;;;;;;;;;;;;;;;;10398002;28;19967;-62
2022/02/02 10:34:13;;;;;;;;;;;;;;;;;;10397979;28;19931;-63
2022/02/02 10:39:13;;;;;;;;;;;;;;;;;;10399075;28;19970;-62
2022/02/02 10:44:12;;;;;;;;;;;;;;;;;;10396898;28;19974;-63
2022/02/02 10:49:14;;;;;;;;;;;;;;;;;;10398232;28;19959;-63
2022/02/02 10:54:26;;;;;;;;;;;;;;;;;;10396782;28;19928;-63
2022/02/02 11:09:57;;;;;;;;;;;;;;;;;;10396625;28;20077;-63
2022/02/02 11:14:55;;;;;;;;;;;;;;;;;;10397033;28;19959;-62
2022/02/02 11:19:53;;;;;;;;;;;;;;;;;;10395881;28;19994;-63
2022/02/02 11:24:51;;;;;;;;;;;;;;;;;;10397257;28;20354;-62
2022/02/02 11:29:49;;;;;;;;;;;;;;;;;;10395447;28;19967;-62
2022/02/02 11:34:47;;;;;;;;;;;;;;;;;;10395520;28;19952;-63
2022/02/02 11:39:50;;;;;;;;;;;;;;;;;;10396148;28;20030;-62
2022/02/02 11:44:54;;;;;;;;;;;;;;;;;;10395427;28;19923;-62
2022/02/02 11:50:12;;;;;;;;;;;;;;;;;;10392693;28;19963;-62
2022/02/02 11:55:10;;;;;;;;;;;;;;;;;;10392712;28;19974;-62
2022/02/02 12:00:12;;;;;;;;;;;;;;;;;;10390881;28;19970;-62
2022/02/02 12:05:19;;;;;;;;;;;;;;;;;;10399622;27;19962;-62
2022/02/02 12:10:21;;;;;;;;;;;;;;;;;;10389805;28;19955;-62
2022/02/02 12:47:20;;;;;;;;;;;;;;;;;;10402749;28;19963;-63
2022/02/02 12:57:40;;;;;;;;;;;;;;;;;;10400674;28;19970;-63
2022/02/02 13:02:38;;;;;;;;;;;;;;;;;;10398806;28;19963;-63
2022/02/02 13:07:37;;;;;;;;;;;;;;;;;;10401297;28;19982;-63
2022/02/02 13:12:38;;;;;;;;;;;;;;;;;;10405896;27;20176;-61
2022/02/02 13:17:36;;;;;;;;;;;;;;;;;;10416672;27;19951;-63
2022/02/02 13:22:34;;;;;;;;;;;;;;;;;;10421751;27;19970;-62
2022/02/02 13:27:35;;;;;;;;;;;;;;;;;;10418163;27;20399;-63
2022/02/02 13:32:44;;;;;;;;;;;;;;;;;;10421185;27;19997;-61
2022/02/02 13:37:50;;;;;;;;;;;;;;;;;;10407561;27;19959;-62
2022/02/02 13:53:36;;;;;;;;;;;;;;;;;;10426855;27;20837;-63
2022/02/02 13:58:43;;;;;;;;;;;;;;;;;;10421910;27;19974;-63
2022/02/02 14:04:03;;;;;;;;;;;;;;;;;;10409620;27;19981;-63
2022/02/02 14:09:09;;;;;;;;;;;;;;;;;;10411790;27;19977;-62
2022/02/02 14:35:15;;;;;;;;;;;;;;;;;;10423923;27;19961;-63
2022/02/02 14:40:24;;;;;;;;;;;;;;;;;;10409694;27;19958;-63
2022/02/02 14:45:26;;;;;;;;;;;;;;;;;;10409676;27;20518;-62
2022/02/02 14:50:29;;;;;;;;;;;;;;;;;;10406030;27;19985;-62
2022/02/02 14:56:01;;;;;;;;;;;;;;;;;;10396343;27;20415;-62
2022/02/02 15:27:28;;;;;;;;;;;;;;;;;;10394654;28;19958;-62
2022/02/02 15:32:30;;;;;;;;;;;;;;;;;;10395785;28;19999;-62
2022/02/02 15:37:32;;;;;;;;;;;;;;;;;;10395089;28;19971;-63
2022/02/02 15:42:59;;;;;;;;;;;;;;;;;;10376454;28;19959;-63
2022/02/02 15:58:43;;;;;;;;;;;;;;;;;;10291340;28;20361;-63
2022/02/02 16:03:43;;;;;;;;;;;;;;;;;;10395254;28;19955;-63
2022/02/02 16:08:43;;;;;;;;;;;;;;;;;;10395318;28;19985;-63
2022/02/02 16:13:44;;;;;;;;;;;;;;;;;;10394836;28;19974;-63
2022/02/02 16:18:47;;;;;;;;;;;;;;;;;;10394514;28;19967;-62
2022/02/02 16:39:34;;;;;;;;;;;;;;;;;;10395031;28;19974;-62
2022/02/02 16:44:32;;;;;;;;;;;;;;;;;;10395178;28;19951;-63
2022/02/02 16:49:30;;;;;;;;;;;;;;;;;;10395211;28;19959;-63
2022/02/02 16:54:32;;;;;;;;;;;;;;;;;;10376238;28;19928;-62
2022/02/02 17:31:03;;;;;;;;;;;;;;;;;;10370544;28;20376;-61
2022/02/02 17:36:15;;;;;;;;;;;;;;;;;;10406003;27;19967;-63
2022/02/02 17:41:24;;;;;;;;;;;;;;;;;;10398073;28;19958;-63
2022/02/02 17:58:01;;;;;;;;;;;;;;;;;;10399362;27;19971;-63
2022/02/02 18:18:50;;;;;;;;;;;;;;;;;;10413639;27;19959;-63
2022/02/02 18:23:54;;;;;;;;;;;;;;;;;;10414583;27;19963;-63
2022/02/02 18:28:59;;;;;;;;;;;;;;;;;;10416100;27;19981;-62
2022/02/02 18:34:09;;;;;;;;;;;;;;;;;;10417825;27;19965;-63
2022/02/02 18:46:25;;;;;;;54.38;33.67;;;;;;;;;;10303025;28;20895;-62
2022/02/02 19:02:21;;;;;;;42.08;27.70;;;;;;;;;;10284642;28;20129;-62
2022/02/02 19:07:40;;;;;;;39.05;29.45;;;;;;;;;;10279052;28;20071;-62
2022/02/02 19:55:22;;;;;;;26.17;17.98;;;;;;;;;;10252392;28;20076;-62
2022/02/02 20:05:44;;;;;;;28.55;19.58;;;;;;;;;;10259880;28;20549;-62
2022/02/02 20:10:49;;;;;;;;;;;;;;;;;;10272329;28;20144;-63
2022/02/02 20:15:47;;;;;;;29.35;17.83;;;;;;;;;;10247797;28;20354;-62
2022/02/02 20:20:47;;;;;;;24.25;17.00;;;;;;;;;;10247516;28;20070;-62
2022/02/02 20:25:50;;;;;;;21.27;15.65;;;;;;;;;;10237470;28;20077;-63
2022/02/02 20:30:48;;;;;;;26.45;17.50;;;;;;;;;;10242531;28;20069;-62
2022/02/02 20:35:48;;;;;;;25.40;18.08;;;;;;;;;;10240553;28;20045;-62
2022/02/02 20:40:46;;;;;;;24.05;15.60;;;;;;;;;;10246174;28;20069;-63
2022/02/02 20:46:08;;;;;;;24.85;17.40;;;;;;;;;;10246467;28;20084;-63
2022/02/02 21:07:20;;;;;;;16.88;12.63;;;;;;;;;;10250986;28;20077;-63
2022/02/02 21:17:35;;;;;;;23.30;14.90;;;;;;;;;;10241910;28;20080;-62
2022/02/02 21:22:46;;;;;;;26.60;13.98;;;;;;;;;;10241071;28;20077;-60
2022/02/02 21:27:44;;;;;;;26.38;17.83;;;;;;;;;;10241428;28;20069;-62
2022/02/02 21:32:42;;;;;;;22.05;13.70;;;;;;;;;;10250931;28;20494;-62
2022/02/02 21:37:44;;;;;;;35.55;22.58;;;;;;;;;;10243820;28;20083;-62
2022/02/02 21:42:43;;;;;;;32.72;18.13;;;;;;;;;;10242245;28;20088;-61
2022/02/02 21:47:42;;;;;;;27.95;15.75;;;;;;;;;;10238868;28;20060;-63
2022/02/02 21:52:41;;;;;;;33.83;17.30;;;;;;;;;;10248871;28;20065;-62
2022/02/02 21:57:40;;;;;;;25.95;16.70;;;;;;;;;;10239775;28;20076;-62
2022/02/02 22:02:39;;;;;;;32.33;18.25;;;;;;;;;;10239045;28;20092;-62
2022/02/02 22:07:37;;;;;;;26.88;15.02;;;;;;;;;;10241371;28;20095;-62
2022/02/02 22:12:38;;;;;;;20.05;11.20;;;;;;;;;;10241895;28;20080;-62
2022/02/02 22:17:36;;;;;;;20.98;13.73;;;;;;;;;;10232572;28;20076;-62
2022/02/02 22:22:35;;;;;;;33.22;16.33;;;;;;;;;;10238412;28;20435;-61
2022/02/02 22:27:33;;;;;;;24.73;13.27;;;;;;;;;;10242371;28;20540;-62
2022/02/02 22:32:33;;;;;;;26.20;14.80;;;;;;;;;;10237810;28;20075;-62
2022/02/02 22:37:31;;;;;;;26.80;13.43;;;;;;;;;;10238385;28;20431;-62
2022/02/02 22:42:30;;;;;;;24.50;13.70;;;;;;;;;;10248101;28;20081;-63
2022/02/02 22:47:30;;;;;;;21.85;14.05;;;;;;;;;;10246057;28;20501;-62
2022/02/02 22:52:29;;;;;;;23.33;14.70;;;;;;;;;;10238350;28;20112;-62
2022/02/02 22:57:28;;;;;;;19.48;13.70;;;;;;;;;;10241370;28;20069;-63
2022/02/02 23:02:47;;;;;;;22.75;15.38;;;;;;;;;;10240240;28;20593;-62
2022/02/02 23:07:47;;;;;;;20.90;12.50;;;;;;;;;;10236327;28;20060;-63
2022/02/02 23:12:45;;;;;;;22.00;12.73;;;;;;;;;;10244028;28;20475;-62
2022/02/02 23:17:43;;;;;;;20.13;12.93;;;;;;;;;;10240522;28;20065;-63
2022/02/02 23:22:44;;;;;;;18.35;13.27;;;;;;;;;;10236247;28;20068;-63
2022/02/02 23:27:45;;;;;;;17.23;11.98;;;;;;;;;;10238557;28;20049;-63
2022/02/02 23:32:44;;;;;;;16.98;12.35;;;;;;;;;;10245380;28;20080;-62
2022/02/02 23:37:42;;;;;;;17.77;14.05;;;;;;;;;;10245265;28;20081;-62
2022/02/02 23:42:41;;;;;;;18.35;12.50;;;;;;;;;;10241729;28;20081;-62
2022/02/02 23:47:42;;;;;;;19.23;13.35;;;;;;;;;;10242296;28;20088;-61
2022/02/02 23:52:46;;;;;;;16.60;12.15;;;;;;;;;;10240688;28;20064;-62
2022/02/02 23:57:53;;;;;;;19.67;14.60;;;;;;;;;;10240880;28;20038;-63
